createdAt,value
2023-09-11T00:02:06.085Z,8.43
2023-09-11T00:04:33.249Z,6.47
2023-09-11T00:07:02.838Z,8.25
2023-09-11T00:09:30.305Z,8.48
2023-09-11T00:11:58.984Z,8.80
2023-09-11T00:14:27.429Z,12.48
2023-09-11T00:16:54.872Z,6.05
2023-09-11T00:19:22.095Z,9.93
2023-09-11T00:21:49.367Z,8.52
2023-09-11T00:24:16.621Z,9.57
2023-09-11T00:26:43.816Z,6.00
2023-09-11T00:32:15.226Z,10.45
2023-09-11T00:34:42.621Z,7.28
2023-09-11T00:37:09.777Z,6.45
2023-09-11T00:39:40.024Z,7.45
2023-09-11T00:42:07.418Z,6.95
2023-09-11T00:44:35.894Z,13.73
2023-09-11T00:47:03.573Z,7.28
2023-09-11T00:49:31.509Z,6.60
2023-09-11T00:51:58.836Z,9.00
2023-09-11T00:54:27.652Z,6.70
2023-09-11T00:56:55.426Z,8.95
2023-09-11T00:59:22.612Z,11.07
2023-09-11T01:01:50.672Z,9.02
2023-09-11T01:04:18.167Z,10.35
2023-09-11T01:06:48.120Z,6.93
2023-09-11T01:09:15.389Z,5.97
2023-09-11T01:11:42.517Z,7.13
2023-09-11T01:14:09.701Z,10.85
2023-09-11T01:17:15.022Z,8.30
2023-09-11T01:19:53.845Z,6.47
2023-09-11T01:22:39.781Z,7.43
2023-09-11T01:25:13.319Z,10.65
2023-09-11T01:28:18.321Z,10.25
2023-09-11T01:30:47.696Z,9.00
2023-09-11T01:33:15.618Z,8.68
2023-09-11T01:35:42.967Z,9.82
2023-09-11T01:38:10.501Z,8.55
2023-09-11T01:40:45.327Z,18.75
2023-09-11T01:43:15.208Z,12.32
2023-09-11T01:45:43.387Z,11.95
2023-09-11T01:48:12.483Z,10.25
2023-09-11T01:50:41.939Z,9.35
2023-09-11T01:53:09.900Z,9.48
2023-09-11T01:55:37.979Z,15.55
2023-09-11T01:58:05.226Z,8.55
2023-09-11T02:00:36.051Z,8.63
2023-09-11T02:03:03.420Z,7.80
2023-09-11T02:05:30.859Z,9.30
2023-09-11T02:07:58.429Z,15.32
2023-09-11T02:10:25.610Z,9.10
2023-09-11T02:12:53.060Z,8.10
2023-09-11T02:15:23.543Z,13.73
2023-09-11T02:17:50.874Z,11.45
2023-09-11T02:20:19.671Z,10.40
2023-09-11T02:22:47.063Z,12.52
2023-09-11T02:25:14.456Z,10.93
2023-09-11T02:27:41.713Z,12.77
2023-09-11T02:30:10.465Z,12.10
2023-09-11T02:32:38.445Z,10.88
2023-09-11T02:35:05.980Z,7.93
2023-09-11T02:37:33.354Z,11.07
2023-09-11T02:40:01.289Z,9.13
2023-09-11T02:42:28.578Z,11.10
2023-09-11T02:44:55.681Z,11.93
2023-09-11T02:47:23.023Z,13.73
2023-09-11T02:49:50.309Z,12.88
2023-09-11T02:52:17.551Z,12.77
2023-09-11T02:54:44.730Z,11.32
2023-09-11T02:57:11.993Z,9.63
2023-09-11T02:59:39.632Z,9.73
2023-09-11T03:02:07.209Z,9.50
2023-09-11T03:04:34.411Z,9.63
2023-09-11T03:07:01.784Z,12.05
2023-09-11T03:09:29.210Z,8.57
2023-09-11T03:11:57.670Z,9.13
2023-09-11T03:14:24.995Z,9.35
2023-09-11T03:16:53.223Z,10.70
2023-09-11T03:19:20.375Z,8.77
2023-09-11T03:21:47.569Z,11.02
2023-09-11T03:24:15.122Z,9.73
2023-09-11T03:26:42.452Z,9.63
2023-09-11T03:29:10.770Z,10.75
2023-09-11T03:31:38.050Z,11.80
2023-09-11T03:34:05.640Z,12.70
2023-09-11T03:36:34.121Z,10.05
2023-09-11T03:39:01.289Z,9.25
2023-09-11T03:41:29.004Z,8.02
2023-09-11T03:43:56.356Z,10.80
2023-09-11T03:46:24.324Z,11.77
2023-09-11T03:48:51.498Z,13.65
2023-09-11T03:51:20.193Z,13.70
2023-09-11T03:53:47.846Z,12.98
2023-09-11T03:58:49.550Z,10.50
2023-09-11T04:01:18.619Z,12.45
2023-09-11T04:03:46.350Z,11.32
2023-09-11T04:06:13.655Z,9.48
2023-09-11T04:08:40.873Z,13.68
2023-09-11T04:11:08.127Z,11.38
2023-09-11T04:13:35.486Z,13.55
2023-09-11T04:16:02.939Z,14.25
2023-09-11T04:18:30.965Z,11.63
2023-09-11T04:21:05.676Z,11.25
2023-09-11T04:23:36.061Z,10.88
2023-09-11T04:26:03.842Z,14.30
2023-09-11T04:28:31.287Z,12.00
2023-09-11T04:30:58.453Z,13.70
2023-09-11T04:33:26.121Z,12.43
2023-09-11T04:35:53.924Z,15.63
2023-09-11T04:38:21.547Z,13.77
2023-09-11T04:40:48.921Z,14.05
2023-09-11T04:43:16.380Z,13.23
2023-09-11T04:45:43.804Z,14.27
2023-09-11T04:48:11.433Z,8.98
2023-09-11T04:50:38.870Z,14.02
2023-09-11T04:53:06.239Z,12.30
2023-09-11T04:55:33.593Z,12.20
2023-09-11T04:58:00.911Z,10.60
2023-09-11T05:00:28.251Z,12.23
2023-09-11T05:02:55.796Z,11.40
2023-09-11T05:05:23.192Z,11.60
2023-09-11T05:07:51.429Z,15.75
2023-09-11T05:10:19.772Z,13.50
2023-09-11T05:12:48.215Z,16.83
2023-09-11T05:15:15.732Z,14.00
2023-09-11T05:17:43.012Z,16.00
2023-09-11T05:20:11.412Z,15.88
2023-09-11T05:22:39.773Z,14.32
2023-09-11T05:25:07.298Z,13.50
2023-09-11T05:27:34.423Z,11.35
2023-09-11T05:30:01.586Z,15.50
2023-09-11T05:32:28.731Z,13.90
2023-09-11T05:34:56.013Z,12.43
2023-09-11T05:37:23.206Z,13.88
2023-09-11T05:39:50.417Z,20.10
2023-09-11T05:42:17.498Z,16.45
2023-09-11T05:44:45.168Z,18.90
2023-09-11T05:47:12.537Z,16.00
2023-09-11T05:49:39.779Z,18.25
2023-09-11T05:52:08.110Z,16.75
2023-09-11T05:54:35.422Z,16.98
2023-09-11T05:57:04.003Z,15.73
2023-09-11T05:59:31.252Z,14.32
2023-09-11T06:01:58.498Z,12.88
2023-09-11T06:04:25.782Z,19.65
2023-09-11T06:06:52.928Z,15.38
2023-09-11T06:09:20.148Z,12.07
2023-09-11T06:11:47.345Z,13.65
2023-09-11T06:14:14.585Z,13.05
2023-09-11T06:16:43.114Z,13.70
2023-09-11T06:19:10.481Z,14.48
2023-09-11T06:21:37.801Z,15.93
2023-09-11T06:24:08.387Z,17.52
2023-09-11T06:26:41.064Z,20.02
2023-09-11T06:29:08.385Z,11.13
2023-09-11T06:31:36.622Z,18.65
2023-09-11T06:34:03.921Z,15.27
2023-09-11T06:36:31.026Z,15.90
2023-09-11T06:38:58.424Z,14.77
2023-09-11T06:41:25.687Z,16.65
2023-09-11T06:43:54.530Z,10.57
2023-09-11T06:46:25.414Z,12.82
2023-09-11T06:48:52.773Z,15.32
2023-09-11T06:51:19.977Z,15.65
2023-09-11T06:53:47.374Z,13.70
2023-09-11T06:56:14.616Z,12.57
2023-09-11T06:58:43.679Z,23.27
2023-09-11T07:01:10.973Z,12.73
2023-09-11T07:03:38.357Z,13.60
2023-09-11T07:06:05.701Z,15.80
2023-09-11T07:08:33.099Z,13.98
2023-09-11T07:11:00.305Z,16.67
2023-09-11T07:13:28.282Z,15.00
2023-09-11T07:16:00.424Z,13.38
2023-09-11T07:18:28.667Z,16.80
2023-09-11T07:20:56.105Z,17.02
2023-09-11T07:23:25.163Z,20.40
2023-09-11T07:25:56.063Z,14.40
2023-09-11T07:28:26.145Z,12.85
2023-09-11T07:30:53.766Z,14.18
2023-09-11T07:33:23.326Z,16.73
2023-09-11T07:35:50.894Z,17.33
2023-09-11T07:38:18.137Z,14.10
2023-09-11T07:40:48.513Z,9.73
2023-09-11T07:43:15.989Z,10.48
2023-09-11T07:45:44.241Z,15.75
2023-09-11T07:48:11.643Z,13.73
2023-09-11T07:50:44.932Z,12.80
2023-09-11T07:53:12.073Z,16.00
2023-09-11T07:55:39.172Z,11.60
2023-09-11T07:58:06.375Z,12.27
2023-09-11T08:00:33.667Z,16.30
2023-09-11T08:03:01.298Z,12.13
2023-09-11T08:05:28.860Z,10.98
2023-09-11T08:07:56.363Z,17.65
2023-09-11T08:10:23.673Z,11.02
2023-09-11T08:12:51.071Z,17.88
2023-09-11T08:15:18.428Z,13.90
2023-09-11T08:17:45.674Z,15.18
2023-09-11T08:20:13.261Z,16.80
2023-09-11T08:22:43.824Z,12.90
2023-09-11T08:25:12.225Z,14.13
2023-09-11T08:27:39.568Z,12.15
2023-09-11T08:30:07.952Z,11.65
2023-09-11T08:32:36.066Z,8.98
2023-09-11T08:35:04.103Z,15.10
2023-09-11T08:37:32.176Z,12.20
2023-09-11T08:39:59.856Z,11.75
2023-09-11T08:42:27.399Z,12.93
2023-09-11T08:44:54.830Z,11.63
2023-09-11T08:47:31.764Z,9.75
2023-09-11T08:50:07.859Z,14.43
2023-09-11T08:52:37.705Z,10.00
2023-09-11T08:55:10.898Z,9.65
2023-09-11T09:00:16.611Z,7.55
2023-09-11T09:02:45.105Z,12.45
2023-09-11T09:05:14.701Z,14.85
2023-09-11T09:07:44.574Z,17.75
2023-09-11T09:10:13.087Z,13.07
2023-09-11T09:12:41.810Z,16.80
2023-09-11T09:15:09.980Z,8.77
2023-09-11T09:17:37.368Z,14.32
2023-09-11T09:20:05.873Z,12.88
2023-09-11T09:22:33.117Z,8.65
2023-09-11T09:25:00.464Z,10.32
2023-09-11T09:27:32.329Z,11.77
2023-09-11T09:30:02.105Z,11.75
2023-09-11T09:32:34.845Z,8.82
2023-09-11T09:35:02.185Z,9.57
2023-09-11T09:37:30.810Z,9.95
2023-09-11T09:39:58.233Z,9.07
2023-09-11T09:42:25.570Z,6.82
2023-09-11T09:44:55.508Z,13.60
2023-09-11T09:47:24.008Z,6.40
2023-09-11T09:49:58.744Z,8.13
2023-09-11T09:52:34.097Z,4.85
2023-09-11T09:55:06.334Z,5.40
2023-09-11T09:57:33.757Z,6.38
2023-09-11T10:00:03.216Z,6.72
2023-09-11T10:02:34.232Z,6.47
2023-09-11T10:05:07.576Z,8.07
2023-09-11T10:07:39.317Z,5.75
2023-09-11T10:10:24.863Z,8.27
2023-09-11T10:13:17.765Z,5.00
2023-09-11T10:15:46.089Z,6.82
2023-09-11T10:18:14.507Z,10.25
2023-09-11T10:20:42.437Z,5.28
2023-09-11T10:23:10.532Z,4.97
2023-09-11T10:25:45.507Z,5.15
2023-09-11T10:28:30.369Z,3.95
2023-09-11T10:31:21.838Z,6.28
2023-09-11T10:33:56.481Z,6.43
2023-09-11T10:36:27.717Z,10.23
2023-09-11T10:39:00.272Z,7.18
2023-09-11T10:41:28.415Z,7.93
2023-09-11T10:43:55.834Z,3.45
2023-09-11T10:46:23.113Z,4.32
2023-09-11T10:48:53.539Z,2.95
2023-09-11T10:51:21.343Z,3.75
2023-09-11T10:53:50.969Z,4.05
2023-09-11T10:56:18.705Z,3.67
2023-09-11T10:58:46.037Z,3.85
2023-09-11T11:01:20.590Z,5.38
2023-09-11T11:03:54.488Z,6.13
2023-09-11T11:06:44.399Z,4.05
2023-09-11T11:09:37.440Z,6.57
2023-09-11T11:12:16.047Z,4.43
2023-09-11T11:14:45.251Z,5.38
2023-09-11T11:17:18.123Z,4.35
2023-09-11T11:20:01.506Z,5.53
2023-09-11T11:22:40.856Z,5.15
2023-09-11T11:25:12.145Z,6.40
2023-09-11T11:27:43.719Z,4.10
2023-09-11T11:30:11.541Z,3.03
2023-09-11T11:32:42.554Z,6.82
2023-09-11T11:35:14.690Z,7.03
2023-09-11T11:37:46.417Z,14.40
2023-09-11T11:40:15.106Z,10.98
2023-09-11T11:42:43.016Z,7.70
2023-09-11T11:45:11.134Z,4.93
2023-09-11T11:47:38.592Z,5.03
2023-09-11T11:50:13.815Z,4.38
2023-09-11T11:52:46.791Z,9.43
2023-09-11T11:57:56.471Z,5.30
2023-09-11T12:00:24.200Z,7.63
2023-09-11T12:03:12.286Z,6.47
2023-09-11T12:05:47.692Z,6.57
2023-09-11T12:08:17.397Z,6.75
2023-09-11T12:10:52.611Z,3.97
2023-09-11T12:13:38.788Z,4.40
2023-09-11T12:16:25.962Z,4.85
2023-09-11T12:18:59.892Z,3.90
2023-09-11T12:21:27.672Z,5.05
2023-09-11T12:23:56.627Z,4.63
2023-09-11T12:26:24.580Z,7.10
2023-09-11T12:28:52.071Z,4.20
2023-09-11T12:31:21.226Z,4.82
2023-09-11T12:34:01.942Z,4.22
2023-09-11T12:36:31.066Z,5.97
2023-09-11T12:39:08.805Z,10.98
2023-09-11T12:41:37.609Z,10.77
2023-09-11T12:44:06.569Z,6.82
2023-09-11T12:46:40.441Z,10.70
2023-09-11T12:49:09.530Z,4.65
2023-09-11T12:51:38.623Z,8.60
2023-09-11T12:54:06.792Z,5.80
2023-09-11T12:56:36.856Z,5.03
2023-09-11T12:59:07.177Z,7.22
2023-09-11T13:01:44.097Z,7.35
2023-09-11T13:04:14.776Z,5.10
2023-09-11T13:06:46.433Z,4.20
2023-09-11T13:09:21.831Z,6.78
2023-09-11T13:11:51.539Z,6.30
2023-09-11T13:14:24.786Z,4.10
2023-09-11T13:16:52.959Z,7.25
2023-09-11T13:19:20.210Z,4.72
2023-09-11T13:21:47.470Z,11.38
2023-09-11T13:24:14.584Z,8.18
2023-09-11T13:26:43.957Z,5.18
2023-09-11T13:29:11.552Z,4.20
2023-09-11T13:31:38.797Z,7.15
2023-09-11T13:34:06.389Z,6.13
2023-09-11T13:36:33.743Z,7.43
2023-09-11T13:39:05.189Z,4.20
2023-09-11T13:41:34.249Z,5.22
2023-09-11T13:44:02.632Z,7.07
2023-09-11T13:46:30.527Z,5.55
2023-09-11T13:48:57.811Z,4.88
2023-09-11T13:51:26.680Z,7.00
2023-09-11T13:53:54.065Z,4.55
2023-09-11T13:56:23.926Z,6.22
2023-09-11T13:58:51.283Z,5.32
2023-09-11T14:01:18.504Z,5.63
2023-09-11T14:03:47.385Z,5.63
2023-09-11T14:06:14.819Z,7.95
2023-09-11T14:08:43.851Z,6.68
2023-09-11T14:11:11.709Z,4.85
2023-09-11T14:13:41.580Z,5.97
2023-09-11T14:16:08.932Z,5.40
2023-09-11T14:18:37.003Z,5.45
2023-09-11T14:21:04.725Z,5.10
2023-09-11T14:23:32.685Z,6.53
2023-09-11T14:26:00.864Z,5.80
2023-09-11T14:28:28.038Z,4.60
2023-09-11T14:30:55.360Z,4.60
2023-09-11T14:33:22.715Z,3.97
2023-09-11T14:35:50.198Z,4.43
2023-09-11T14:38:17.432Z,4.05
2023-09-11T14:40:44.894Z,5.10
2023-09-11T14:43:12.328Z,4.38
2023-09-11T14:45:40.231Z,6.97
2023-09-11T14:48:07.544Z,6.25
2023-09-11T14:50:34.916Z,3.53
2023-09-11T14:53:02.212Z,5.53
2023-09-11T14:55:30.660Z,6.13
2023-09-11T14:57:57.880Z,5.43
2023-09-11T15:00:29.261Z,5.30
2023-09-11T15:02:56.803Z,5.90
2023-09-11T15:05:24.597Z,5.07
2023-09-11T15:07:52.041Z,6.47
2023-09-11T15:10:20.395Z,4.50
2023-09-11T15:12:48.544Z,3.50
2023-09-11T15:15:16.059Z,4.53
2023-09-11T15:17:45.067Z,3.63
2023-09-11T15:20:12.811Z,4.85
2023-09-11T15:22:40.004Z,10.05
2023-09-11T15:25:07.518Z,6.38
2023-09-11T15:27:35.093Z,3.80
2023-09-11T15:30:04.277Z,8.07
2023-09-11T15:32:33.409Z,5.22
2023-09-11T15:35:00.814Z,5.40
2023-09-11T15:37:29.295Z,4.72
2023-09-11T15:39:58.908Z,4.22
2023-09-11T15:42:26.699Z,7.07
2023-09-11T15:44:55.248Z,6.05
2023-09-11T15:47:22.756Z,5.82
2023-09-11T15:49:49.970Z,4.40
2023-09-11T15:52:18.469Z,5.35
2023-09-11T15:54:46.022Z,5.50
2023-09-11T15:57:15.630Z,3.85
2023-09-11T15:59:43.538Z,4.65
2023-09-11T16:02:10.994Z,5.78
2023-09-11T16:04:38.569Z,6.07
2023-09-11T16:07:06.448Z,4.28
2023-09-11T16:09:33.824Z,4.72
2023-09-11T16:12:03.285Z,4.90
2023-09-11T16:14:30.924Z,6.05
2023-09-11T16:16:59.500Z,7.57
2023-09-11T16:19:27.655Z,8.63
2023-09-11T16:21:55.467Z,4.18
2023-09-11T16:24:27.982Z,4.72
2023-09-11T16:27:02.356Z,4.30
2023-09-11T16:29:29.743Z,5.43
2023-09-11T16:31:56.919Z,6.32
2023-09-11T16:34:25.740Z,4.57
2023-09-11T16:36:53.551Z,5.30
2023-09-11T16:39:23.630Z,6.63
2023-09-11T16:41:51.194Z,6.22
2023-09-11T16:44:19.721Z,8.32
2023-09-11T16:46:50.441Z,5.70
2023-09-11T16:49:25.478Z,5.03
2023-09-11T16:51:53.074Z,3.55
2023-09-11T16:54:20.511Z,8.73
2023-09-11T16:56:49.712Z,5.45
2023-09-11T16:59:17.302Z,7.00
2023-09-11T17:01:48.171Z,6.70
2023-09-11T17:04:17.948Z,5.28
2023-09-11T17:06:47.070Z,6.35
2023-09-11T17:09:15.108Z,4.80
2023-09-11T17:11:42.412Z,8.48
2023-09-11T17:14:11.151Z,8.70
2023-09-11T17:16:38.915Z,7.18
2023-09-11T17:19:06.268Z,5.57
2023-09-11T17:21:33.663Z,6.20
2023-09-11T17:24:03.600Z,5.13
2023-09-11T17:26:31.249Z,5.30
2023-09-11T17:28:58.777Z,7.07
2023-09-11T17:31:26.053Z,5.43
2023-09-11T17:33:53.648Z,8.25
2023-09-11T17:36:23.117Z,4.97
2023-09-11T17:38:51.505Z,6.28
2023-09-11T17:41:19.021Z,5.07
2023-09-11T17:43:46.253Z,5.55
2023-09-11T17:46:16.435Z,4.80
2023-09-11T17:48:44.409Z,7.75
2023-09-11T17:51:12.795Z,6.38
2023-09-11T17:53:40.379Z,5.20
2023-09-11T17:56:07.598Z,5.93
2023-09-11T17:58:34.769Z,5.18
2023-09-11T18:01:02.004Z,7.53
2023-09-11T18:03:30.323Z,7.03
2023-09-11T18:06:00.884Z,10.07
2023-09-11T18:08:32.049Z,10.00
2023-09-11T18:10:59.674Z,5.68
2023-09-11T18:13:28.195Z,6.93
2023-09-11T18:15:56.575Z,8.55
2023-09-11T18:18:25.633Z,8.05
2023-09-11T18:20:53.694Z,6.28
2023-09-11T18:23:21.389Z,6.68
2023-09-11T18:25:49.490Z,6.43
2023-09-11T18:28:17.126Z,9.70
2023-09-11T18:30:46.378Z,8.13
2023-09-11T18:33:13.804Z,7.10
2023-09-11T18:35:41.309Z,7.97
2023-09-11T18:38:08.619Z,8.80
2023-09-11T18:40:37.278Z,8.00
2023-09-11T18:43:06.016Z,9.07
2023-09-11T18:45:33.452Z,9.50
2023-09-11T18:48:01.084Z,10.32
2023-09-11T18:50:34.110Z,6.32
2023-09-11T18:53:01.769Z,10.95
2023-09-11T18:55:30.146Z,8.48
2023-09-11T18:57:57.790Z,7.95
2023-09-11T19:00:25.130Z,8.48
2023-09-11T19:02:52.674Z,7.72
2023-09-11T19:05:22.199Z,7.03
2023-09-11T19:07:52.041Z,7.60
2023-09-11T19:10:19.565Z,11.20
2023-09-11T19:12:46.748Z,6.97
2023-09-11T19:15:14.228Z,8.85
2023-09-11T19:17:42.261Z,7.50
2023-09-11T19:20:10.763Z,6.90
2023-09-11T19:22:40.773Z,9.80
2023-09-11T19:25:11.209Z,10.52
2023-09-11T19:27:40.071Z,5.90
2023-09-11T19:30:08.234Z,5.53
2023-09-11T19:32:37.624Z,7.80
2023-09-11T19:35:06.663Z,8.50
2023-09-11T19:37:37.286Z,8.10
2023-09-11T19:40:05.649Z,10.27
2023-09-11T19:42:33.239Z,9.93
2023-09-11T19:45:00.900Z,7.00
2023-09-11T19:47:32.926Z,7.53
2023-09-11T19:50:02.688Z,9.45
2023-09-11T19:52:29.967Z,10.30
2023-09-11T19:54:59.729Z,9.27
2023-09-11T19:57:27.892Z,7.38
2023-09-11T19:59:56.014Z,8.63
2023-09-11T20:02:23.443Z,9.88
2023-09-11T20:04:50.761Z,7.45
2023-09-11T20:07:18.672Z,10.23
2023-09-11T20:09:46.073Z,10.35
2023-09-11T20:12:16.881Z,6.53
2023-09-11T20:14:44.285Z,7.03
2023-09-11T20:17:11.445Z,9.65
2023-09-11T20:19:39.609Z,10.50
2023-09-11T20:22:09.758Z,9.32
2023-09-11T20:24:37.188Z,10.98
2023-09-11T20:27:04.798Z,7.15
2023-09-11T20:29:33.670Z,7.55
2023-09-11T20:32:01.270Z,11.80
2023-09-11T20:34:29.367Z,8.77
2023-09-11T20:36:56.720Z,8.88
2023-09-11T20:39:27.870Z,8.55
2023-09-11T20:41:55.287Z,7.50
2023-09-11T20:44:22.584Z,12.65
2023-09-11T20:46:50.274Z,9.52
2023-09-11T20:49:17.505Z,7.97
2023-09-11T20:51:44.752Z,6.28
2023-09-11T20:54:13.180Z,8.02
2023-09-11T20:56:41.955Z,10.63
2023-09-11T20:59:09.383Z,8.35
2023-09-11T21:01:36.707Z,6.45
2023-09-11T21:04:07.495Z,7.75
2023-09-11T21:06:39.769Z,6.40
2023-09-11T21:09:07.060Z,7.95
2023-09-11T21:11:34.763Z,19.30
2023-09-11T21:14:02.700Z,7.97
2023-09-11T21:16:35.721Z,6.82
2023-09-11T21:19:04.119Z,9.13
2023-09-11T21:21:33.224Z,7.15
2023-09-11T21:24:00.609Z,8.65
2023-09-11T21:26:29.108Z,7.78
2023-09-11T21:28:56.512Z,7.97
2023-09-11T21:31:23.850Z,6.88
2023-09-11T21:33:52.507Z,8.25
2023-09-11T21:36:19.819Z,7.80
2023-09-11T21:38:47.246Z,9.13
2023-09-11T21:41:16.530Z,7.85
2023-09-11T21:43:45.366Z,9.30
2023-09-11T21:46:13.442Z,15.05
2023-09-11T21:48:43.734Z,8.43
2023-09-11T21:51:11.295Z,7.80
2023-09-11T21:53:40.923Z,8.32
2023-09-11T21:56:08.534Z,12.25
2023-09-11T21:58:36.924Z,9.38
2023-09-11T22:01:04.601Z,10.57
2023-09-11T22:03:31.869Z,9.73
2023-09-11T22:05:59.253Z,8.05
2023-09-11T22:08:26.604Z,14.20
2023-09-11T22:10:54.806Z,9.77
2023-09-11T22:13:23.926Z,7.68
2023-09-11T22:15:51.432Z,8.35
2023-09-11T22:18:20.552Z,11.52
2023-09-11T22:20:48.041Z,9.60
2023-09-11T22:23:16.305Z,8.75
2023-09-11T22:25:43.446Z,10.63
2023-09-11T22:28:13.593Z,9.07
2023-09-11T22:30:41.057Z,7.75
2023-09-11T22:33:08.445Z,10.38
2023-09-11T22:35:48.948Z,8.18
2023-09-11T22:38:24.776Z,10.38
2023-09-11T22:40:52.017Z,8.48
2023-09-11T22:43:19.307Z,6.57
2023-09-11T22:45:46.514Z,9.18
2023-09-11T22:48:19.360Z,7.38
2023-09-11T22:50:46.883Z,10.07
2023-09-11T22:53:14.125Z,9.55
2023-09-11T22:55:41.421Z,8.90
2023-09-11T22:58:10.238Z,9.68
2023-09-11T23:00:41.907Z,11.73
2023-09-11T23:03:11.454Z,13.27
2023-09-11T23:05:40.214Z,8.85
2023-09-11T23:08:07.482Z,7.50
2023-09-11T23:10:34.869Z,7.93
2023-09-11T23:13:02.146Z,9.00
2023-09-11T23:15:32.824Z,9.73
2023-09-11T23:18:00.249Z,10.65
2023-09-11T23:20:27.610Z,11.77
2023-09-11T23:22:54.888Z,6.97
2023-09-11T23:25:22.137Z,10.65
2023-09-11T23:27:49.472Z,9.48
2023-09-11T23:30:17.281Z,8.25
2023-09-11T23:32:44.683Z,7.03
2023-09-11T23:35:12.049Z,9.07
2023-09-11T23:37:39.303Z,8.05
2023-09-11T23:40:10.856Z,8.85
2023-09-11T23:42:38.349Z,6.28
2023-09-11T23:45:06.818Z,8.05
2023-09-11T23:47:34.308Z,8.60
2023-09-11T23:50:01.707Z,7.28
2023-09-11T23:52:29.501Z,8.48
2023-09-11T23:54:56.747Z,9.18
2023-09-11T23:57:23.947Z,6.68
2023-09-11T23:59:51.119Z,8.77
